Time;durP1;ratioP1;P1;durP2;ratioP2;P2;SDS_P1;SDS_P2;PMS_P1;PMS_P2;Temp;Humidity;BMP_temperature;BMP_pressure;BME280_temperature;BME280_humidity;BME280_pressure;Samples;Min_cycle;Max_cycle;Signal;HPM_P1;HPM_P2
2022/04/19 00:00:28;;;;;;;14.57;5.53;;;;;;;11.65;60.10;99740.78;5076172;28;20573;-66
2022/04/19 00:03:14;;;;;;;9.27;5.88;;;;;;;11.66;60.31;99734.75;5076697;28;20562;-65
2022/04/19 00:05:59;;;;;;;10.55;5.80;;;;;;;11.65;60.03;99733.00;5060068;28;20052;-66
2022/04/19 00:08:43;;;;;;;14.98;6.05;;;;;;;11.65;60.45;99735.59;5076135;28;20450;-66
2022/04/19 00:11:27;;;;;;;10.90;5.43;;;;;;;11.65;60.49;99723.50;5061200;28;20082;-65
2022/04/19 00:14:10;;;;;;;10.70;5.55;;;;;;;11.67;60.23;99732.16;5075943;28;20407;-65
2022/04/19 00:16:54;;;;;;;11.30;5.65;;;;;;;11.69;60.39;99719.19;5076171;28;20059;-65
2022/04/19 00:19:38;;;;;;;15.45;5.97;;;;;;;11.70;60.44;99720.94;5060378;28;20514;-65
2022/04/19 00:22:22;;;;;;;12.30;5.32;;;;;;;11.70;60.49;99720.94;5060780;28;20118;-65
2022/04/19 00:25:07;;;;;;;9.77;6.35;;;;;;;11.71;60.26;99726.13;5075388;28;20054;-65
2022/04/19 00:27:52;;;;;;;10.18;5.38;;;;;;;11.69;60.23;99721.78;5060179;28;20044;-66
2022/04/19 00:30:36;;;;;;;12.52;5.47;;;;;;;11.70;60.30;99716.59;5075188;28;20047;-65
2022/04/19 00:33:20;;;;;;;;;;;;;;;11.66;59.97;99714.84;5076034;28;20135;-66
2022/04/19 00:36:05;;;;;;;13.55;4.95;;;;;;;11.63;60.35;99707.03;5075215;28;20326;-66
2022/04/19 00:38:48;;;;;;;;;;;;;;;11.63;59.95;99708.75;5076052;28;20518;-65
2022/04/19 00:41:32;;;;;;;10.27;5.38;;;;;;;11.62;60.12;99701.81;5060569;28;19919;-65
2022/04/19 00:44:16;;;;;;;9.68;5.07;;;;;;;11.63;59.99;99700.97;5075659;28;20502;-66
2022/04/19 00:47:00;;;;;;;11.40;5.28;;;;;;;11.64;60.35;99700.13;5060663;28;20059;-65
2022/04/19 00:49:44;;;;;;;13.10;6.07;;;;;;;11.65;60.57;99704.44;5060135;28;20048;-65
2022/04/19 00:52:30;;;;;;;8.73;4.47;;;;;;;11.65;60.69;99700.13;5074797;28;20106;-65
2022/04/19 00:55:14;;;;;;;9.23;5.18;;;;;;;11.66;60.32;99703.59;5059955;28;20074;-66
2022/04/19 00:57:59;;;;;;;11.23;5.10;;;;;;;11.67;60.55;99705.31;5074979;28;20040;-65
2022/04/19 01:00:43;;;;;;;8.18;5.43;;;;;;;11.67;60.41;99702.72;5074657;28;20059;-66
2022/04/19 01:03:27;;;;;;;;;;;;;;;11.67;60.13;99700.13;5059532;28;20067;-65
2022/04/19 01:06:11;;;;;;;23.80;8.98;;;;;;;11.66;60.70;99699.28;5074725;28;19969;-65
2022/04/19 01:08:55;;;;;;;11.02;6.05;;;;;;;11.66;60.33;99694.09;5074543;28;20047;-65
2022/04/19 01:14:42;;;;;;;11.68;5.28;;;;;;;11.66;60.32;99694.09;5074768;28;20059;-66
2022/04/19 01:17:26;;;;;;;;;;;;;;;11.66;60.08;99695.81;5075049;28;20404;-66
2022/04/19 01:20:14;;;;;;;10.15;5.85;;;;;;;11.65;60.56;99696.66;5074046;28;20287;-66
2022/04/19 01:22:58;;;;;;;9.48;5.30;;;;;;;11.65;60.65;99699.25;5059697;28;20404;-65
2022/04/19 01:25:42;;;;;;;7.45;4.75;;;;;;;11.65;60.86;99691.47;5074458;28;20048;-65
2022/04/19 01:28:26;;;;;;;9.27;5.28;;;;;;;11.64;60.35;99688.00;5073934;28;20098;-66
2022/04/19 01:31:11;;;;;;;8.90;4.80;;;;;;;11.63;60.44;99691.47;5074045;28;20086;-66
2022/04/19 01:33:56;;;;;;;9.45;4.75;;;;;;;11.64;60.36;99688.00;5074117;28;20170;-65
2022/04/19 01:36:41;;;;;;;8.55;4.53;;;;;;;11.63;60.26;99698.38;5058866;28;20067;-66
2022/04/19 01:42:30;;;;;;;10.27;5.10;;;;;;;11.63;60.67;99694.06;5073634;28;20094;-65
2022/04/19 01:45:23;;;;;;;9.18;5.10;;;;;;;11.64;60.28;99692.31;5073611;28;20055;-65
2022/04/19 01:48:08;;;;;;;8.38;5.25;;;;;;;11.64;60.78;99692.31;5073946;28;20044;-65
2022/04/19 01:50:52;;;;;;;9.48;5.30;;;;;;;11.64;60.59;99697.50;5058455;28;20070;-66
2022/04/19 01:53:36;;;;;;;12.50;5.10;;;;;;;11.63;60.77;99691.47;5059035;28;20439;-65
2022/04/19 01:56:20;;;;;;;7.03;4.35;;;;;;;11.61;60.57;99697.50;5058890;28;20047;-66
2022/04/19 01:59:04;;;;;;;7.65;4.65;;;;;;;11.56;60.53;99693.16;5073852;28;20399;-66
2022/04/19 02:01:48;;;;;;;;;;;;;;;11.51;60.40;99683.63;5074399;28;20549;-66
2022/04/19 02:04:32;;;;;;;10.00;4.70;;;;;;;11.49;60.78;99681.00;5059061;28;20066;-66
2022/04/19 02:07:16;;;;;;;8.77;4.68;;;;;;;11.47;60.66;99680.09;5073551;28;20556;-66
2022/04/19 02:10:01;;;;;;;9.80;5.32;;;;;;;11.47;60.71;99677.50;5073891;28;20068;-66
2022/04/19 02:12:45;;;;;;;6.30;4.28;;;;;;;11.47;60.56;99677.50;5058869;28;20043;-65
2022/04/19 02:15:29;;;;;;;8.13;4.55;;;;;;;11.48;60.73;99678.41;5073440;28;20091;-65
2022/04/19 02:18:13;;;;;;;8.80;4.63;;;;;;;11.50;60.98;99676.69;5073515;28;20050;-66
2022/04/19 02:20:58;;;;;;;9.95;4.47;;;;;;;11.50;60.70;99676.69;5073100;28;20083;-66
2022/04/19 02:23:42;;;;;;;7.90;5.03;;;;;;;11.50;60.56;99677.53;5058046;28;20047;-65
2022/04/19 02:26:26;;;;;;;9.20;5.57;;;;;;;11.50;60.60;99677.53;5073395;28;20074;-66
2022/04/19 02:29:11;;;;;;;9.02;4.75;;;;;;;11.51;60.62;99681.03;5072269;28;20062;-66
2022/04/19 02:31:55;;;;;;;13.10;5.47;;;;;;;11.51;60.84;99678.44;5073457;28;20140;-66
2022/04/19 02:34:39;;;;;;;10.63;5.75;;;;;;;11.51;60.62;99678.44;5073363;28;20051;-66
2022/04/19 02:37:23;;;;;;;10.82;6.10;;;;;;;11.51;61.05;99684.47;5073672;28;20055;-65
2022/04/19 02:40:08;;;;;;;10.48;5.38;;;;;;;11.52;60.92;99686.22;5058548;28;20126;-65
2022/04/19 02:42:54;;;;;;;;;;;;;;;11.51;60.89;99681.03;5073714;28;20059;-65
2022/04/19 02:45:38;;;;;;;13.65;6.60;;;;;;;11.50;61.00;99676.69;5058674;28;19977;-66
2022/04/19 02:48:22;;;;;;;10.23;5.20;;;;;;;11.51;60.99;99671.50;5073707;28;20423;-65
2022/04/19 02:51:06;;;;;;;;;;;;;;;11.50;60.92;99668.91;5073588;28;20052;-66
2022/04/19 02:53:50;;;;;;;13.02;6.47;;;;;;;11.49;60.53;99670.59;5073085;28;19945;-65
2022/04/19 02:56:34;;;;;;;14.55;6.20;;;;;;;11.49;60.91;99664.56;5058193;28;20052;-67
2022/04/19 02:59:18;;;;;;;10.77;5.50;;;;;;;11.49;61.08;99673.22;5073362;28;20075;-66
2022/04/19 03:02:02;;;;;;;13.18;6.93;;;;;;;11.48;60.63;99676.66;5072872;28;20514;-66
2022/04/19 03:04:46;;;;;;;10.50;5.57;;;;;;;11.48;60.71;99673.22;5073392;28;20040;-65
2022/04/19 03:07:30;;;;;;;11.68;5.45;;;;;;;11.46;60.78;99665.41;5073440;28;20102;-65
2022/04/19 03:10:18;;;;;;;10.43;5.78;;;;;;;11.47;60.92;99667.13;5072693;28;20165;-65
2022/04/19 03:13:02;;;;;;;9.75;5.45;;;;;;;11.48;61.03;99668.88;5072814;28;20517;-65
2022/04/19 03:15:46;;;;;;;11.32;4.53;;;;;;;11.47;60.60;99674.91;5058037;28;20043;-65
2022/04/19 03:18:30;;;;;;;14.35;5.65;;;;;;;11.45;61.03;99668.84;5072778;28;20094;-65
2022/04/19 03:21:14;;;;;;;;;;;;;;;11.41;60.54;99669.72;5073677;28;20079;-66
2022/04/19 03:30:05;;;;;;;6.47;5.00;;;;;;;11.41;61.01;99667.97;5072347;28;20098;-65
2022/04/19 03:32:52;;;;;;;11.45;6.25;;;;;;;11.40;60.81;99663.63;5072814;28;20055;-66
2022/04/19 03:35:37;;;;;;;7.00;4.38;;;;;;;11.42;60.57;99661.06;5072770;28;20075;-65
2022/04/19 03:38:22;;;;;;;6.38;4.53;;;;;;;11.41;60.69;99661.94;5073085;28;20110;-65
2022/04/19 03:41:06;;;;;;;6.82;4.20;;;;;;;11.41;60.67;99661.94;5061115;28;20063;-66
2022/04/19 03:43:51;;;;;;;8.55;5.15;;;;;;;11.41;60.70;99657.59;5061086;28;20135;-65
2022/04/19 03:47:09;;;;;;;9.38;4.80;;;;;;;11.41;60.73;99669.72;5076611;28;20167;-65
2022/04/19 03:49:46;;;;;;;10.05;4.35;;;;;;;11.39;60.83;99663.63;5076386;28;20102;-66
2022/04/19 03:52:30;;;;;;;;;;;;;;;11.38;60.72;99664.50;5076207;28;20097;-66
2022/04/19 03:55:14;;;;;;;6.88;4.50;;;;;;;11.36;60.80;99667.09;5076017;28;20276;-65
2022/04/19 03:57:58;;;;;;;7.18;4.30;;;;;;;11.36;61.08;99674.88;5076264;28;20457;-65
2022/04/19 04:00:42;;;;;;;;;;;;;;;11.34;61.07;99670.50;5076651;28;20055;-65
2022/04/19 04:03:27;;;;;;;4.35;3.90;;;;;;;11.32;61.02;99667.91;5076660;28;20129;-65
2022/04/19 04:06:12;;;;;;;6.57;4.07;;;;;;;11.33;61.00;99674.84;5061230;28;20093;-65
2022/04/19 04:08:56;;;;;;;7.13;4.65;;;;;;;11.34;61.27;99674.00;5076325;28;20044;-66
2022/04/19 04:11:39;;;;;;;6.95;4.05;;;;;;;11.33;61.23;99667.06;5075744;28;20044;-65
2022/04/19 04:14:23;;;;;;;8.48;4.50;;;;;;;11.33;60.77;99663.59;5075862;28;20047;-66
2022/04/19 04:17:07;;;;;;;6.68;4.55;;;;;;;11.33;60.99;99671.38;5076166;28;20098;-66
2022/04/19 04:19:51;;;;;;;5.95;3.75;;;;;;;11.32;61.07;99669.63;5076059;28;20051;-65
2022/04/19 04:22:35;;;;;;;7.10;4.20;;;;;;;11.30;60.96;99667.03;5075867;28;20195;-65
2022/04/19 04:25:20;;;;;;;4.65;3.67;;;;;;;11.30;61.24;99669.63;5060668;28;20051;-66
2022/04/19 04:28:05;;;;;;;5.78;4.47;;;;;;;11.30;61.03;99672.22;5075237;28;20067;-65
2022/04/19 04:30:48;;;;;;;;;;;;;;;11.29;61.19;99667.03;5060732;28;20039;-65
2022/04/19 04:33:32;;;;;;;6.63;3.85;;;;;;;11.27;61.15;99675.69;5075516;28;19970;-65
2022/04/19 04:36:17;;;;;;;8.35;4.03;;;;;;;11.26;60.94;99671.34;5060625;28;20513;-65
2022/04/19 04:39:03;;;;;;;8.77;4.55;;;;;;;11.26;60.84;99670.47;5060715;28;20464;-66
2022/04/19 04:41:47;;;;;;;6.07;4.50;;;;;;;11.25;61.13;99676.50;5075695;28;20396;-66
2022/04/19 04:44:31;;;;;;;6.35;4.55;;;;;;;11.23;61.01;99670.44;5059849;28;20050;-65
2022/04/19 04:50:18;;;;;;;6.47;4.40;;;;;;;11.22;60.87;99673.88;5075514;28;20078;-65
2022/04/19 04:53:02;;;;;;;5.70;4.10;;;;;;;11.21;61.01;99675.63;5075110;28;20457;-66
2022/04/19 04:55:46;;;;;;;;;;;;;;;11.20;60.74;99673.03;5075516;28;20577;-66
2022/04/19 04:58:31;;;;;;;9.15;4.95;;;;;;;11.18;60.93;99665.22;5075381;28;19945;-65
2022/04/19 05:01:14;;;;;;;6.20;4.68;;;;;;;11.19;60.95;99677.31;5059713;28;20055;-66
2022/04/19 05:03:58;;;;;;;6.05;4.07;;;;;;;11.18;61.09;99678.19;5074414;28;20047;-65
2022/04/19 05:06:42;;;;;;;9.25;4.28;;;;;;;11.18;61.12;99675.59;5060042;28;20514;-65
2022/04/19 05:09:26;;;;;;;11.00;3.95;;;;;;;11.19;61.22;99673.88;5075049;28;20561;-65
2022/04/19 05:12:10;;;;;;;8.13;3.90;;;;;;;11.18;61.13;99674.72;5074504;28;20519;-66
2022/04/19 05:14:55;;;;;;;6.13;3.80;;;;;;;11.18;60.84;99665.22;5059717;28;20574;-65
2022/04/19 05:17:39;;;;;;;6.97;4.00;;;;;;;11.18;60.91;99670.41;5059756;28;20082;-65
2022/04/19 05:20:23;;;;;;;6.18;4.15;;;;;;;11.18;61.27;99674.72;5074828;28;20060;-66
2022/04/19 05:23:07;;;;;;;6.93;4.03;;;;;;;11.18;61.17;99674.72;5059361;28;20044;-65
2022/04/19 05:25:51;;;;;;;;;;;;;;;11.17;60.84;99683.38;5074799;28;20064;-65
2022/04/19 05:28:35;;;;;;;9.00;4.18;;;;;;;11.16;61.00;99679.03;5074295;28;19938;-66
2022/04/19 05:31:19;;;;;;;6.75;4.20;;;;;;;11.16;61.24;99679.03;5059257;28;20098;-65
2022/04/19 05:34:03;;;;;;;7.05;3.92;;;;;;;11.16;61.32;99682.47;5073987;28;20109;-65
2022/04/19 05:36:47;;;;;;;;;;;;;;;11.16;60.95;99681.63;5074906;28;20400;-65
2022/04/19 05:39:31;;;;;;;7.65;4.20;;;;;;;11.14;61.11;99676.41;5074871;28;19930;-65
2022/04/19 05:42:15;;;;;;;6.30;4.13;;;;;;;11.15;61.24;99679.88;5074478;28;20047;-65
2022/04/19 05:44:59;;;;;;;8.05;3.88;;;;;;;11.16;60.93;99684.22;5073644;28;20047;-66
2022/04/19 05:47:43;;;;;;;6.88;4.55;;;;;;;11.16;61.30;99686.81;5058768;28;20125;-65
2022/04/19 05:50:26;;;;;;;6.95;4.80;;;;;;;11.16;61.15;99684.22;5074001;28;20048;-65
2022/04/19 05:53:11;;;;;;;7.43;4.00;;;;;;;11.17;61.47;99685.97;5058808;28;20094;-65
2022/04/19 05:55:54;;;;;;;9.20;4.57;;;;;;;11.17;61.14;99686.81;5073779;28;20110;-67
2022/04/19 05:58:38;;;;;;;8.38;4.88;;;;;;;11.17;61.08;99684.22;5073827;28;20143;-65
2022/04/19 06:01:22;;;;;;;6.82;4.60;;;;;;;11.17;61.32;99681.63;5073529;28;20106;-65
2022/04/19 06:07:09;;;;;;;7.63;4.68;;;;;;;11.16;61.39;99687.66;5073918;28;20559;-65
2022/04/19 06:09:53;;;;;;;7.60;4.45;;;;;;;11.17;61.32;99704.97;5058339;28;20067;-65
2022/04/19 06:12:38;;;;;;;5.53;4.25;;;;;;;11.18;61.17;99687.69;5058101;28;20094;-65
2022/04/19 06:15:22;;;;;;;8.35;5.13;;;;;;;11.17;61.13;99694.59;5073213;28;20086;-66
2022/04/19 06:18:06;;;;;;;7.55;5.13;;;;;;;11.17;61.29;99696.34;5058526;28;20051;-65
2022/04/19 06:20:53;;;;;;;6.20;3.55;;;;;;;11.17;61.47;99697.19;5073687;28;20102;-65
2022/04/19 06:23:37;;;;;;;9.50;5.50;;;;;;;11.15;60.89;99693.72;5073786;28;20047;-65
2022/04/19 06:26:21;;;;;;;7.20;4.22;;;;;;;11.14;60.94;99694.56;5073664;28;20055;-66
2022/04/19 06:29:06;;;;;;;5.97;4.85;;;;;;;11.15;61.05;99701.50;5073072;28;20056;-65
2022/04/19 06:31:50;;;;;;;7.80;4.95;;;;;;;11.16;61.06;99704.97;5073019;28;20111;-65
2022/04/19 06:34:34;;;;;;;8.45;5.13;;;;;;;11.15;61.29;99703.22;5073003;28;20131;-66
2022/04/19 06:37:19;;;;;;;6.85;4.57;;;;;;;11.14;61.11;99701.50;5073611;28;20074;-65
2022/04/19 06:40:06;;;;;;;9.02;5.10;;;;;;;11.12;60.97;99701.50;5058007;28;20051;-65
2022/04/19 06:42:50;;;;;;;7.82;4.78;;;;;;;11.10;61.03;99706.66;5073272;28;20089;-66
2022/04/19 06:45:34;;;;;;;10.32;5.22;;;;;;;11.11;60.96;99704.94;5058041;28;20186;-65
2022/04/19 06:48:18;;;;;;;9.55;6.40;;;;;;;11.09;60.64;99704.06;5073338;28;20046;-66
2022/04/19 06:51:01;;;;;;;10.45;5.43;;;;;;;11.08;60.68;99702.31;5072831;28;20063;-66
2022/04/19 06:53:46;;;;;;;9.20;5.53;;;;;;;11.08;61.00;99704.91;5058532;28;20079;-66
2022/04/19 06:56:31;;;;;;;;;;;;;;;11.06;60.66;99709.22;5073524;28;20039;-65
2022/04/19 06:59:15;;;;;;;12.20;5.75;;;;;;;11.05;61.16;99702.28;5073292;28;19935;-65
2022/04/19 07:01:58;;;;;;;9.95;5.95;;;;;;;11.05;61.09;99707.47;5073120;28;20067;-65
2022/04/19 07:04:43;;;;;;;9.63;5.57;;;;;;;11.05;60.67;99707.47;5073098;28;20051;-66
2022/04/19 07:07:27;;;;;;;14.38;6.28;;;;;;;11.06;60.89;99717.00;5073011;28;20203;-65
2022/04/19 07:10:12;;;;;;;10.40;5.80;;;;;;;11.04;60.79;99717.00;5073066;28;20047;-65
2022/04/19 07:12:56;;;;;;;12.05;5.57;;;;;;;11.05;60.59;99718.72;5072610;28;20511;-65
2022/04/19 07:15:40;;;;;;;9.75;6.75;;;;;;;11.05;60.78;99716.13;5076200;28;20507;-65
2022/04/19 07:18:24;;;;;;;12.75;6.95;;;;;;;11.06;60.66;99711.81;5062175;28;20052;-66
2022/04/19 07:27:14;;;;;;;8.75;5.43;;;;;;;11.08;60.49;99723.91;5076535;28;20592;-66
2022/04/19 07:29:58;;;;;;;6.90;5.10;;;;;;;11.11;61.05;99721.34;5076717;28;20511;-66
2022/04/19 07:32:42;;;;;;;;;;;;;;;11.12;60.69;99724.84;5076968;28;20067;-65
2022/04/19 07:35:27;;;;;;;9.15;6.18;;;;;;;11.12;60.65;99724.84;5061648;28;19926;-65
2022/04/19 07:38:11;;;;;;;8.65;5.82;;;;;;;11.13;61.09;99731.75;5061791;28;20087;-65
2022/04/19 07:40:55;;;;;;;11.20;5.97;;;;;;;11.14;60.97;99728.28;5061665;28;20051;-65
2022/04/19 07:43:40;;;;;;;7.50;4.85;;;;;;;11.14;60.87;99730.88;5060994;28;20052;-65
2022/04/19 07:46:25;;;;;;;;;;;;;;;11.16;61.09;99733.50;5061915;28;20048;-65
2022/04/19 07:49:09;;;;;;;11.43;6.07;;;;;;;11.15;61.25;99727.44;5061488;28;19974;-66
2022/04/19 07:51:54;;;;;;;;;;;;;;;11.15;61.10;99730.03;5076775;28;20446;-65
2022/04/19 07:54:38;;;;;;;9.25;6.10;;;;;;;11.15;61.28;99722.25;5061414;28;19925;-65
2022/04/19 07:57:22;;;;;;;10.20;5.88;;;;;;;11.16;61.13;99718.78;5076009;28;20051;-66
2022/04/19 08:00:06;;;;;;;;;;;;;;;11.16;60.93;99723.97;5061544;28;20411;-66
2022/04/19 08:02:51;;;;;;;10.20;6.70;;;;;;;11.15;61.11;99723.97;5075791;28;19977;-65
2022/04/19 08:05:34;;;;;;;8.02;4.93;;;;;;;11.17;61.38;99712.75;5076089;28;20043;-66
2022/04/19 08:08:21;;;;;;;7.88;5.10;;;;;;;11.18;61.18;99718.81;5076378;28;20059;-65
2022/04/19 08:11:04;;;;;;;11.68;6.20;;;;;;;11.19;61.39;99716.22;5075965;28;20067;-66
2022/04/19 08:13:48;;;;;;;12.65;6.05;;;;;;;11.20;61.43;99722.31;5061128;28;20110;-66
2022/04/19 08:16:32;;;;;;;6.85;5.63;;;;;;;11.21;61.57;99714.53;5076234;28;20098;-65
2022/04/19 08:19:16;;;;;;;9.68;5.53;;;;;;;11.21;61.48;99714.53;5075797;28;20052;-65
2022/04/19 08:22:00;;;;;;;10.82;6.72;;;;;;;11.23;61.45;99707.63;5075626;28;20064;-65
2022/04/19 08:24:44;;;;;;;10.38;6.28;;;;;;;11.25;61.08;99702.44;5076078;28;20138;-65
2022/04/19 08:27:28;;;;;;;9.82;6.20;;;;;;;11.26;61.31;99706.78;5074356;28;20517;-65
2022/04/19 08:30:16;;;;;;;7.80;5.72;;;;;;;11.25;61.52;99703.31;5075557;28;20043;-65
2022/04/19 08:33:00;;;;;;;8.55;5.45;;;;;;;11.27;61.60;99690.34;5075350;28;20106;-65
2022/04/19 08:35:45;;;;;;;7.13;6.30;;;;;;;11.26;61.43;99694.69;5075257;28;20047;-65
2022/04/19 08:38:29;;;;;;;9.13;6.57;;;;;;;11.29;61.46;99692.97;5060287;28;20491;-66
2022/04/19 08:41:17;;;;;;;11.40;5.85;;;;;;;11.30;61.62;99692.09;5060033;28;20055;-66
2022/04/19 08:44:02;;;;;;;9.55;5.10;;;;;;;11.31;61.20;99686.94;5060360;28;20059;-66
2022/04/19 08:46:46;;;;;;;;;;;;;;;11.33;61.32;99686.94;5060710;28;20052;-65
2022/04/19 08:49:31;;;;;;;6.82;5.72;;;;;;;11.33;61.48;99689.53;5075413;28;19918;-66
2022/04/19 08:52:16;;;;;;;8.60;6.10;;;;;;;11.37;61.37;99691.28;5074913;28;20052;-66
2022/04/19 08:58:04;;;;;;;8.02;5.50;;;;;;;11.41;61.01;99696.50;5074575;28;20098;-65
2022/04/19 09:00:48;;;;;;;6.70;5.60;;;;;;;11.43;61.19;99688.75;5060006;28;20051;-66
2022/04/19 09:03:33;;;;;;;7.93;5.47;;;;;;;11.44;61.05;99690.50;5075315;28;20072;-65
2022/04/19 09:06:16;;;;;;;;;;;;;;;11.43;60.84;99691.34;5060448;28;20074;-65
2022/04/19 09:09:11;;;;;;;7.25;5.75;;;;;;;11.40;60.70;99689.59;5060105;28;20322;-66
2022/04/19 09:12:13;;;;;;;9.05;5.72;;;;;;;11.45;61.33;99689.59;5059930;28;20047;-66
2022/04/19 09:14:59;;;;;;;6.07;4.97;;;;;;;11.47;61.17;99694.81;5059713;28;20580;-65
2022/04/19 09:17:48;;;;;;;9.50;5.25;;;;;;;11.50;60.87;99687.06;5075003;28;20132;-65
2022/04/19 09:20:32;;;;;;;7.05;5.38;;;;;;;11.54;60.90;99692.28;5059436;28;20415;-65
2022/04/19 09:23:15;;;;;;;9.82;5.43;;;;;;;11.53;61.00;99682.75;5074829;28;20481;-65
2022/04/19 09:26:09;;;;;;;10.57;5.13;;;;;;;11.53;60.69;99681.88;5059480;28;20120;-65
2022/04/19 09:29:23;;;;;;;10.33;5.50;;;;;;;11.53;61.05;99676.69;5074428;28;20454;-65
2022/04/19 09:32:12;;;;;;;11.18;5.68;;;;;;;11.58;60.85;99681.06;5059578;28;20129;-65
2022/04/19 09:34:56;;;;;;;9.88;5.30;;;;;;;11.58;61.01;99678.47;5074536;28;20477;-65
2022/04/19 09:37:47;;;;;;;11.40;6.38;;;;;;;11.60;61.05;99682.81;5073832;28;20048;-65
2022/04/19 09:40:34;;;;;;;12.68;5.50;;;;;;;11.63;60.97;99677.59;5058989;28;20046;-65
2022/04/19 09:43:24;;;;;;;6.72;5.32;;;;;;;11.64;60.81;99674.16;5059043;28;20415;-65
2022/04/19 09:46:08;;;;;;;9.70;5.68;;;;;;;11.66;60.73;99672.44;5058756;28;20070;-65
2022/04/19 09:48:51;;;;;;;10.35;6.32;;;;;;;11.70;60.72;99676.78;5073861;28;20099;-65
2022/04/19 09:51:36;;;;;;;8.50;6.18;;;;;;;11.71;61.18;99673.34;5058483;28;20054;-66
2022/04/19 09:54:23;;;;;;;;;;;;;;;11.72;60.80;99677.69;5074139;28;20530;-65
2022/04/19 09:57:11;;;;;;;7.90;6.15;;;;;;;11.71;60.98;99674.19;5073734;28;19920;-65
2022/04/19 09:59:55;;;;;;;10.07;5.82;;;;;;;11.75;60.69;99666.44;5058775;28;20055;-65
2022/04/19 10:08:46;;;;;;;9.82;6.18;;;;;;;11.77;60.90;99667.31;5074045;28;20048;-65
2022/04/19 10:11:31;;;;;;;12.60;6.00;;;;;;;11.80;60.85;99655.19;5058544;28;20055;-65
2022/04/19 10:14:18;;;;;;;9.95;7.32;;;;;;;11.80;60.63;99659.53;5058204;28;20215;-64
2022/04/19 10:17:04;;;;;;;9.52;7.07;;;;;;;11.79;60.98;99656.06;5073442;28;20043;-65
2022/04/19 10:19:50;;;;;;;8.23;6.72;;;;;;;11.81;60.95;99653.50;5073490;28;20055;-66
2022/04/19 10:22:34;;;;;;;10.20;7.22;;;;;;;11.81;60.80;99656.94;5073356;28;20063;-65
2022/04/19 10:25:18;;;;;;;;;;;;;;;11.81;60.59;99656.09;5073774;28;20056;-65
2022/04/19 10:28:03;;;;;;;12.55;7.43;;;;;;;11.82;60.84;99663.03;5073760;28;20345;-65
2022/04/19 10:30:52;;;;;;;10.25;7.63;;;;;;;11.83;60.87;99647.44;5058627;28;20170;-65
2022/04/19 10:33:51;;;;;;;11.50;6.88;;;;;;;11.85;60.57;99653.50;5073341;28;20132;-65
2022/04/19 10:36:39;;;;;;;9.15;6.95;;;;;;;11.88;60.73;99647.44;5073223;28;20505;-65
2022/04/19 10:39:27;;;;;;;10.07;6.93;;;;;;;11.87;60.84;99648.31;5058362;28;20054;-65
2022/04/19 10:42:28;;;;;;;10.02;7.22;;;;;;;11.93;60.83;99645.75;5058489;28;20051;-65
2022/04/19 10:45:15;;;;;;;11.15;7.72;;;;;;;11.94;60.68;99642.28;5073341;28;20094;-65
2022/04/19 10:48:04;;;;;;;9.90;7.22;;;;;;;11.94;60.59;99647.50;5073220;28;20121;-65
2022/04/19 10:50:51;;;;;;;11.02;7.05;;;;;;;11.94;60.90;99649.19;5061472;28;20055;-65
2022/04/19 10:53:35;;;;;;;9.00;7.05;;;;;;;11.94;60.75;99657.00;5062223;28;20636;-66
2022/04/19 10:56:18;;;;;;;10.45;7.90;;;;;;;11.95;61.17;99643.16;5077173;28;20082;-65
2022/04/19 10:59:20;;;;;;;11.55;7.97;;;;;;;11.98;60.32;99648.34;5077712;28;20051;-65
2022/04/19 11:02:35;;;;;;;13.70;7.03;;;;;;;12.00;60.70;99644.06;5061988;28;20098;-66
2022/04/19 11:05:41;;;;;;;;;;;;;;;11.99;60.69;99639.75;5062329;28;20052;-66
2022/04/19 11:08:24;;;;;;;10.73;7.22;;;;;;;11.97;60.94;99638.84;5077336;28;20394;-65
2022/04/19 11:11:20;;;;;;;9.02;6.03;;;;;;;12.02;60.32;99639.75;5061564;28;20575;-65
2022/04/19 11:14:17;;;;;;;11.18;6.85;;;;;;;12.03;60.75;99637.16;5061909;28;20047;-65
2022/04/19 11:17:21;;;;;;;11.40;6.10;;;;;;;12.05;60.61;99644.09;5076760;28;20043;-65
2022/04/19 11:20:16;;;;;;;8.33;6.83;;;;;;;12.02;60.43;99643.22;5076745;28;20069;-66
2022/04/19 11:23:17;;;;;;;10.23;7.00;;;;;;;12.00;60.70;99637.13;5061586;28;20278;-66
2022/04/19 11:26:03;;;;;;;11.55;6.82;;;;;;;12.02;60.30;99634.56;5062057;28;20055;-65
2022/04/19 11:29:07;;;;;;;10.30;6.03;;;;;;;12.05;60.12;99633.69;5076626;28;20047;-65
2022/04/19 11:31:51;;;;;;;9.45;6.13;;;;;;;12.07;60.77;99634.56;5076253;28;20051;-65
2022/04/19 11:34:35;;;;;;;12.20;6.93;;;;;;;12.08;60.41;99629.38;5076941;28;20053;-65
2022/04/19 11:37:19;;;;;;;9.25;6.38;;;;;;;12.08;60.32;99626.78;5076531;28;20051;-65
2022/04/19 11:49:20;;;;;;;8.60;6.28;;;;;;;12.07;60.03;99617.25;5076728;28;20101;-65
2022/04/19 11:52:11;;;;;;;10.43;6.93;;;;;;;12.05;60.30;99616.41;5076117;28;20075;-65
2022/04/19 11:54:57;;;;;;;11.40;7.22;;;;;;;12.09;60.52;99612.94;5076673;28;20047;-66
2022/04/19 11:57:41;;;;;;;11.48;7.20;;;;;;;12.09;60.07;99604.28;5075819;28;20056;-65
2022/04/19 12:00:24;;;;;;;10.15;7.28;;;;;;;12.09;60.37;99607.72;5076175;28;20514;-65
2022/04/19 12:03:28;;;;;;;9.80;6.97;;;;;;;12.11;60.36;99613.81;5076238;28;20086;-65
2022/04/19 12:06:18;;;;;;;10.32;6.97;;;;;;;12.13;60.37;99609.47;5060695;28;20086;-65
2022/04/19 12:09:03;;;;;;;11.18;7.63;;;;;;;12.15;60.02;99605.16;5076341;28;20404;-66
2022/04/19 12:11:48;;;;;;;12.32;7.72;;;;;;;12.17;59.99;99607.75;5060821;28;20450;-65
2022/04/19 12:14:33;;;;;;;10.70;7.13;;;;;;;12.14;60.04;99599.97;5061038;28;20132;-66
2022/04/19 12:17:22;;;;;;;11.02;7.53;;;;;;;12.13;60.14;99599.09;5060417;28;20416;-65
2022/04/19 12:20:07;;;;;;;9.77;7.03;;;;;;;12.16;60.00;99603.41;5060553;28;20427;-66
2022/04/19 12:22:51;;;;;;;10.93;7.30;;;;;;;12.19;60.17;99606.03;5060386;28;20082;-67
2022/04/19 12:25:35;;;;;;;11.68;7.50;;;;;;;12.18;59.76;99589.59;5075756;28;20078;-65
2022/04/19 12:28:19;;;;;;;10.75;7.03;;;;;;;12.18;59.73;99592.19;5060881;28;20133;-65
2022/04/19 12:31:03;;;;;;;11.98;7.07;;;;;;;12.19;59.59;99587.84;5075221;28;20094;-66
2022/04/19 12:33:54;;;;;;;;;;;;;;;12.18;59.86;99587.00;5075970;28;20560;-65
2022/04/19 12:36:49;;;;;;;10.40;7.20;;;;;;;12.17;60.30;99585.25;5075649;28;19919;-65
2022/04/19 12:39:32;;;;;;;;;;;;;;;12.19;60.27;99582.66;5060521;28;20513;-65
2022/04/19 12:42:17;;;;;;;8.77;6.50;;;;;;;12.17;60.33;99576.56;5075753;28;19966;-65
2022/04/19 12:45:04;;;;;;;14.60;7.75;;;;;;;12.21;59.48;99583.53;5075580;28;20089;-65
2022/04/19 12:47:49;;;;;;;11.20;6.68;;;;;;;12.20;59.73;99573.13;5075121;28;20466;-66
2022/04/19 12:50:34;;;;;;;11.23;7.43;;;;;;;12.21;60.19;99562.75;5074914;28;20050;-65
2022/04/19 12:53:24;;;;;;;12.25;7.75;;;;;;;12.24;59.75;99564.47;5060422;28;20050;-66
2022/04/19 12:56:54;;;;;;;11.15;7.25;;;;;;;12.24;59.96;99569.66;5075103;28;20067;-66
2022/04/19 12:59:38;;;;;;;10.95;7.47;;;;;;;12.23;59.61;99567.94;5074963;28;20035;-65
2022/04/19 13:02:21;;;;;;;13.88;7.50;;;;;;;12.27;59.29;99564.47;5059767;28;20510;-66
2022/04/19 13:05:06;;;;;;;14.02;7.95;;;;;;;12.29;59.38;99561.03;5074962;28;20542;-65
2022/04/19 13:13:56;;;;;;;10.93;8.32;;;;;;;12.27;60.12;99564.47;5074431;28;20566;-65
2022/04/19 13:16:40;;;;;;;12.02;7.57;;;;;;;12.29;59.33;99560.16;5075083;28;20051;-65
2022/04/19 13:19:24;;;;;;;11.35;7.70;;;;;;;12.31;59.35;99558.44;5059775;28;20055;-66
2022/04/19 13:22:08;;;;;;;15.60;8.95;;;;;;;12.34;59.21;99563.63;5059598;28;20507;-66
2022/04/19 13:24:52;;;;;;;12.13;8.10;;;;;;;12.35;59.07;99560.16;5059409;28;20051;-66
2022/04/19 13:27:37;;;;;;;;;;;;;;;12.37;59.16;99560.16;5074700;28;20067;-65
2022/04/19 13:30:21;;;;;;;12.70;8.02;;;;;;;12.32;59.21;99554.97;5074636;28;19978;-66
2022/04/19 13:33:05;;;;;;;16.83;8.60;;;;;;;12.35;59.32;99554.97;5059284;28;20094;-65
2022/04/19 13:35:49;;;;;;;15.25;7.95;;;;;;;12.36;59.41;99555.81;5074358;28;20098;-66
2022/04/19 13:38:35;;;;;;;13.57;9.02;;;;;;;12.39;58.75;99553.22;5059506;28;20051;-65
2022/04/19 13:41:19;;;;;;;11.07;7.95;;;;;;;12.40;58.76;99548.03;5059184;28;20474;-65
2022/04/19 13:44:03;;;;;;;15.68;9.18;;;;;;;12.42;59.02;99545.44;5074600;28;20102;-66
2022/04/19 13:46:48;;;;;;;14.82;9.35;;;;;;;12.42;58.77;99550.66;5074036;28;20052;-65
2022/04/19 13:49:32;;;;;;;;;;;;;;;12.39;58.97;99551.50;5074361;28;20522;-65
2022/04/19 13:52:16;;;;;;;11.43;8.43;;;;;;;12.39;59.14;99548.03;5073773;28;19955;-66